createdAt,value
2019-03-20T00:00:44.627Z,68.94
2019-03-20T00:03:15.110Z,68.79
2019-03-20T00:05:45.531Z,68.70
2019-03-20T00:08:16.009Z,69.04
2019-03-20T00:10:46.400Z,68.98
2019-03-20T00:13:16.881Z,69.02
2019-03-20T00:15:47.288Z,69.27
2019-03-20T00:18:17.737Z,69.51
2019-03-20T00:20:48.136Z,69.95
2019-03-20T00:23:19.650Z,70.17
2019-03-20T00:25:50.077Z,71.14
2019-03-20T00:28:20.548Z,71.43
2019-03-20T00:30:50.965Z,72.00
2019-03-20T00:33:21.446Z,72.34
2019-03-20T00:35:51.945Z,72.70
2019-03-20T00:38:22.419Z,73.08
2019-03-20T00:40:52.935Z,72.91
2019-03-20T00:43:23.424Z,73.29
2019-03-20T00:45:53.821Z,73.66
2019-03-20T00:48:24.326Z,73.70
2019-03-20T00:50:54.719Z,73.58
2019-03-20T00:53:25.220Z,73.38
2019-03-20T00:55:55.643Z,72.87
2019-03-20T00:58:26.143Z,73.01
2019-03-20T01:00:56.542Z,72.90
2019-03-20T01:03:27.005Z,72.56
2019-03-20T01:05:57.470Z,73.02
2019-03-20T01:08:27.951Z,73.38
2019-03-20T01:10:58.386Z,74.06
2019-03-20T01:13:28.863Z,74.19
2019-03-20T01:15:59.270Z,74.77
2019-03-20T01:18:29.761Z,74.90
2019-03-20T01:21:00.280Z,75.09
2019-03-20T01:23:31.772Z,74.26
2019-03-20T01:26:02.166Z,73.53
2019-03-20T01:28:32.615Z,73.67
2019-03-20T01:31:03.002Z,73.86
2019-03-20T01:33:33.471Z,73.87
2019-03-20T01:36:03.899Z,74.15
2019-03-20T01:38:34.367Z,74.11
2019-03-20T01:41:04.767Z,74.71
2019-03-20T01:43:35.228Z,73.97
2019-03-20T01:46:05.761Z,74.55
2019-03-20T01:48:36.217Z,74.87
2019-03-20T01:51:20.828Z,73.90
2019-03-20T01:53:51.284Z,74.56
2019-03-20T01:56:21.679Z,75.22
2019-03-20T01:58:52.065Z,75.84
2019-03-20T02:01:22.411Z,75.69
2019-03-20T02:03:52.897Z,76.04
2019-03-20T02:06:23.332Z,76.95
2019-03-20T02:08:53.775Z,76.91
2019-03-20T02:11:24.203Z,77.50
2019-03-20T02:13:54.727Z,77.44
2019-03-20T02:16:25.140Z,77.15
2019-03-20T02:18:55.584Z,77.83
2019-03-20T02:21:25.982Z,76.71
2019-03-20T02:23:57.391Z,77.95
2019-03-20T02:26:27.847Z,78.49
2019-03-20T02:28:58.337Z,78.64
2019-03-20T02:31:28.812Z,78.66
2019-03-20T02:33:59.294Z,78.86
2019-03-20T02:36:29.766Z,78.12
2019-03-20T02:39:00.278Z,78.01
2019-03-20T02:41:30.677Z,77.84
2019-03-20T02:44:01.565Z,77.36
2019-03-20T02:46:31.978Z,77.26
2019-03-20T02:49:02.432Z,78.00
2019-03-20T02:51:32.875Z,79.12
2019-03-20T02:54:03.359Z,79.92
2019-03-20T02:56:33.759Z,79.82
2019-03-20T02:59:04.253Z,78.99
2019-03-20T03:01:34.687Z,78.89
2019-03-20T03:04:05.338Z,78.67
2019-03-20T03:06:35.775Z,79.29
2019-03-20T03:09:08.270Z,79.76
2019-03-20T03:11:38.691Z,79.87
2019-03-20T03:14:09.164Z,79.77
2019-03-20T03:16:39.581Z,81.06
2019-03-20T03:19:10.022Z,80.66
2019-03-20T03:21:40.466Z,80.97
2019-03-20T03:24:11.959Z,80.89
2019-03-20T03:26:42.395Z,81.14
2019-03-20T03:29:12.866Z,81.07
2019-03-20T03:31:43.302Z,81.12
2019-03-20T03:34:13.776Z,80.84
2019-03-20T03:36:44.210Z,80.03
2019-03-20T03:39:14.679Z,80.37
2019-03-20T03:41:45.117Z,80.62
2019-03-20T03:44:15.598Z,80.44
2019-03-20T03:46:46.006Z,81.47
2019-03-20T03:49:16.798Z,81.85
2019-03-20T03:51:47.211Z,81.77
2019-03-20T03:54:17.658Z,80.94
2019-03-20T03:56:48.888Z,80.63
2019-03-20T03:59:19.259Z,80.21
2019-03-20T04:01:49.746Z,80.46
2019-03-20T04:04:20.184Z,81.79
2019-03-20T04:06:50.592Z,81.35
2019-03-20T04:09:21.063Z,81.48
2019-03-20T04:11:51.478Z,81.53
2019-03-20T04:14:21.933Z,81.80
2019-03-20T04:16:52.375Z,81.95
2019-03-20T04:19:22.833Z,82.10
2019-03-20T04:21:53.228Z,82.19
2019-03-20T04:24:24.777Z,82.19
2019-03-20T04:26:56.073Z,81.69
2019-03-20T04:29:26.524Z,82.05
2019-03-20T04:31:56.972Z,82.64
2019-03-20T04:34:27.466Z,82.42
2019-03-20T04:36:57.991Z,82.15
2019-03-20T04:39:28.460Z,82.23
2019-03-20T04:41:58.867Z,81.68
2019-03-20T04:44:29.348Z,82.25
2019-03-20T04:46:59.807Z,81.67
2019-03-20T04:49:30.283Z,81.34
2019-03-20T04:52:00.727Z,81.23
2019-03-20T04:54:31.188Z,81.08
2019-03-20T04:57:01.644Z,81.53
2019-03-20T04:59:32.097Z,81.96
2019-03-20T05:02:02.502Z,81.95
2019-03-20T05:04:33.005Z,81.99
2019-03-20T05:07:03.440Z,82.09
2019-03-20T05:09:33.952Z,81.36
2019-03-20T05:12:04.420Z,81.37
2019-03-20T05:14:34.884Z,81.79
2019-03-20T05:17:05.351Z,83.68
2019-03-20T05:19:35.816Z,84.37
2019-03-20T05:22:06.349Z,83.95
2019-03-20T05:24:37.782Z,83.26
2019-03-20T05:27:08.207Z,83.80
2019-03-20T05:29:38.652Z,83.47
2019-03-20T05:32:09.068Z,83.80
2019-03-20T05:34:39.538Z,83.73
2019-03-20T05:37:10.902Z,84.22
2019-03-20T05:39:41.470Z,84.17
2019-03-20T05:42:11.892Z,84.23
2019-03-20T05:44:42.341Z,84.04
2019-03-20T05:47:12.777Z,83.52
2019-03-20T05:49:43.221Z,83.90
2019-03-20T05:52:13.659Z,83.65
2019-03-20T05:54:44.130Z,82.34
2019-03-20T05:57:14.586Z,81.88
2019-03-20T05:59:45.042Z,83.03
2019-03-20T06:02:15.483Z,81.94
2019-03-20T06:04:45.976Z,81.75
2019-03-20T06:07:21.561Z,82.45
2019-03-20T06:09:48.586Z,81.28
2019-03-20T06:12:19.394Z,81.85
2019-03-20T06:14:49.880Z,81.90
2019-03-20T06:17:20.336Z,81.60
2019-03-20T06:19:50.789Z,81.94
2019-03-20T06:22:22.556Z,81.32
2019-03-20T06:24:54.998Z,81.29
2019-03-20T06:27:25.425Z,80.15
2019-03-20T06:29:55.867Z,80.96
2019-03-20T06:32:26.295Z,81.00
2019-03-20T06:34:56.754Z,80.66
2019-03-20T06:37:32.494Z,79.46
2019-03-20T06:39:59.395Z,77.97
2019-03-20T06:42:29.876Z,76.83
2019-03-20T06:45:00.405Z,76.36
2019-03-20T06:47:31.637Z,76.16
2019-03-20T06:50:02.115Z,75.09
2019-03-20T06:52:32.549Z,74.29
2019-03-20T06:55:03.049Z,73.87
2019-03-20T06:57:33.470Z,73.37
2019-03-20T07:00:29.393Z,73.43
2019-03-20T07:03:01.389Z,75.07
2019-03-20T07:06:04.850Z,76.37
2019-03-20T07:08:53.021Z,75.74
2019-03-20T07:11:22.245Z,73.96
2019-03-20T07:13:52.689Z,74.09
2019-03-20T07:16:23.181Z,74.43
2019-03-20T07:18:53.623Z,73.34
2019-03-20T07:21:24.093Z,72.39
2019-03-20T07:23:54.529Z,72.53
2019-03-20T07:26:25.958Z,72.58
2019-03-20T07:28:56.402Z,71.69
2019-03-20T07:31:26.845Z,72.05
2019-03-20T07:33:57.262Z,71.67
2019-03-20T07:36:27.711Z,70.63
2019-03-20T07:38:58.147Z,69.53
2019-03-20T07:41:28.623Z,69.84
2019-03-20T07:44:00.256Z,69.58
2019-03-20T07:46:30.748Z,68.82
2019-03-20T07:49:01.186Z,67.93
2019-03-20T07:51:31.633Z,67.78
2019-03-20T07:54:02.041Z,67.40
2019-03-20T07:56:32.528Z,67.01
2019-03-20T07:59:03.385Z,66.88
2019-03-20T08:01:34.073Z,67.69
2019-03-20T08:04:04.635Z,66.78
2019-03-20T08:06:39.425Z,66.61
2019-03-20T08:09:12.837Z,67.28
2019-03-20T08:11:50.396Z,68.10
2019-03-20T08:14:22.863Z,67.16
2019-03-20T08:16:53.412Z,66.61
2019-03-20T08:19:25.294Z,66.86
2019-03-20T08:21:55.822Z,66.12
2019-03-20T08:24:26.449Z,66.14
2019-03-20T08:27:12.357Z,65.34
2019-03-20T08:29:49.274Z,65.05
2019-03-20T08:32:19.782Z,64.41
2019-03-20T08:34:50.233Z,65.30
2019-03-20T08:37:20.797Z,64.75
2019-03-20T08:39:51.231Z,63.79
2019-03-20T08:42:22.544Z,63.50
2019-03-20T08:44:55.402Z,62.96
2019-03-20T08:47:27.695Z,62.41
2019-03-20T08:49:58.169Z,61.91
2019-03-20T08:52:32.668Z,61.25
2019-03-20T08:55:10.417Z,60.27
2019-03-20T08:57:44.011Z,60.16
2019-03-20T09:00:25.240Z,60.07
2019-03-20T09:03:11.761Z,59.66
2019-03-20T09:05:49.775Z,59.14
2019-03-20T09:08:29.467Z,59.87
2019-03-20T09:10:54.722Z,58.27
2019-03-20T09:13:28.422Z,59.50
2019-03-20T09:16:01.363Z,59.10
2019-03-20T09:18:36.284Z,57.83
2019-03-20T09:21:06.760Z,57.69
2019-03-20T09:23:37.302Z,56.19
2019-03-20T09:26:07.781Z,56.19
2019-03-20T09:28:39.309Z,55.99
2019-03-20T09:31:09.725Z,55.99
2019-03-20T09:33:41.731Z,54.39
2019-03-20T09:36:12.231Z,55.11
2019-03-20T09:38:44.247Z,55.11
2019-03-20T09:41:14.662Z,55.13
2019-03-20T09:43:45.139Z,55.11
2019-03-20T09:46:15.600Z,52.54
2019-03-20T09:48:46.083Z,54.03
2019-03-20T09:51:27.054Z,53.54
2019-03-20T09:54:01.545Z,51.75
2019-03-20T09:56:32.247Z,53.23
2019-03-20T09:59:03.225Z,51.87
2019-03-20T10:01:40.947Z,52.47
2019-03-20T10:04:18.874Z,50.94
2019-03-20T10:07:00.618Z,50.82
2019-03-20T10:09:31.118Z,48.96
2019-03-20T10:12:01.542Z,48.46
2019-03-20T10:14:32.069Z,48.31
2019-03-20T10:17:02.502Z,49.41
2019-03-20T10:19:33.166Z,47.80
2019-03-20T10:22:03.608Z,50.43
2019-03-20T10:24:34.273Z,49.18
2019-03-20T10:27:04.895Z,47.85
2019-03-20T10:29:40.585Z,48.84
2019-03-20T10:32:11.190Z,48.84
2019-03-20T10:34:41.959Z,47.36
2019-03-20T10:37:13.474Z,48.57
2019-03-20T10:39:43.977Z,47.45
2019-03-20T10:42:14.405Z,44.28
2019-03-20T10:44:44.993Z,44.07
2019-03-20T10:47:15.564Z,42.06
2019-03-20T10:49:46.220Z,40.96
2019-03-20T10:52:21.302Z,39.63
2019-03-20T10:54:52.275Z,39.70
2019-03-20T10:57:22.838Z,39.88
2019-03-20T10:59:53.469Z,39.58
2019-03-20T11:02:24.077Z,40.14
2019-03-20T11:04:57.742Z,40.46
2019-03-20T11:07:28.219Z,39.37
2019-03-20T11:09:58.810Z,37.18
2019-03-20T11:12:30.966Z,37.41
2019-03-20T11:16:55.107Z,36.79
2019-03-20T11:19:26.189Z,36.10
2019-03-20T11:21:56.725Z,37.15
2019-03-20T11:24:27.317Z,36.33
2019-03-20T11:26:57.836Z,37.76
2019-03-20T11:29:39.776Z,38.66
2019-03-20T11:32:25.066Z,38.08
2019-03-20T11:35:03.206Z,36.30
2019-03-20T11:37:40.442Z,37.62
2019-03-20T11:40:30.143Z,37.31
2019-03-20T11:43:02.035Z,38.26
2019-03-20T11:45:34.421Z,37.71
2019-03-20T11:48:08.385Z,36.19
2019-03-20T11:50:45.130Z,36.92
2019-03-20T11:53:17.116Z,34.52
2019-03-20T11:55:48.191Z,35.19
2019-03-20T11:58:23.002Z,37.69
2019-03-20T12:01:03.620Z,37.11
2019-03-20T12:03:36.350Z,35.65
2019-03-20T12:06:21.862Z,35.54
2019-03-20T12:08:57.792Z,34.50
2019-03-20T12:11:45.203Z,31.70
2019-03-20T12:14:07.804Z,32.33
2019-03-20T12:16:42.672Z,31.64
2019-03-20T12:19:16.825Z,31.61
2019-03-20T12:21:53.281Z,33.92
2019-03-20T12:24:24.329Z,34.16
2019-03-20T12:26:55.238Z,34.36
2019-03-20T12:29:25.761Z,35.31
2019-03-20T12:31:56.202Z,35.57
2019-03-20T12:34:27.613Z,36.35
2019-03-20T12:36:58.103Z,34.35
2019-03-20T12:39:28.613Z,33.28
2019-03-20T12:42:00.174Z,33.22
2019-03-20T12:44:30.611Z,32.72
2019-03-20T12:47:01.052Z,31.19
2019-03-20T12:49:31.557Z,30.95
2019-03-20T12:52:02.368Z,30.81
2019-03-20T12:54:33.548Z,32.62
2019-03-20T12:57:03.973Z,34.00
2019-03-20T12:59:34.933Z,34.63
2019-03-20T13:02:08.166Z,37.58
2019-03-20T13:04:38.699Z,35.46
2019-03-20T13:07:46.273Z,34.00
2019-03-20T13:10:22.404Z,33.38
2019-03-20T13:13:01.421Z,33.74
2019-03-20T13:18:54.972Z,32.86
2019-03-20T13:21:32.696Z,32.23
2019-03-20T13:24:15.120Z,31.41
2019-03-20T13:26:55.248Z,30.76
2019-03-20T13:29:32.055Z,30.37
2019-03-20T13:32:04.805Z,31.48
2019-03-20T13:34:38.366Z,31.38
2019-03-20T13:37:09.441Z,32.57
2019-03-20T13:39:39.886Z,33.16
2019-03-20T13:42:10.366Z,32.50
2019-03-20T13:44:40.935Z,34.28
2019-03-20T13:47:11.403Z,35.20
2019-03-20T13:49:41.856Z,36.77
2019-03-20T13:52:12.654Z,36.81
2019-03-20T13:54:43.206Z,35.79
2019-03-20T13:57:13.678Z,34.15
2019-03-20T13:59:44.165Z,33.54
2019-03-20T14:02:14.675Z,36.56
2019-03-20T14:04:45.252Z,38.48
2019-03-20T14:07:15.751Z,38.99
